Poteet, Texas
Current Conditions -  °F | °C
As of 3:35 PM on Saturday 20 Dec 2014 (Local Time) from KPEZ Reporting Station
Overcast Overcast  
Wind Chill: 56°   Ceiling: 2500
Heat Index: 56°   Visibility: 10mi
Dew Point: 45°   Wind: 8mph
Humidity: 67%   Direction: 50°NE
Pressure: 30.15"   Gusts: NA
Location:  29.04°N, 98.57°W
Report Text: KPEZ 202135Z AUTO 05007KT 10SM OVC025 13/07 A3015 RMK AO2 T01320071
Loading
Personal Weather Stations






























Interactive Weather Map New forecast layout! Learn more

10-Day Weather Forecast

Advertisements
Track Severe Weather on mobile